Time;durP1;ratioP1;P1;durP2;ratioP2;P2;SDS_P1;SDS_P2;PMS_P1;PMS_P2;Temp;Humidity;BMP_temperature;BMP_pressure;BME280_temperature;BME280_humidity;BME280_pressure;Samples;Min_cycle;Max_cycle;Signal;HPM_P1;HPM_P2
2022/11/02 00:00:20;;;;;;;2.95;2.65;;;18.20;98.50;;;;;;5071015;28;20182;-70
2022/11/02 00:02:45;;;;;;;2.92;2.72;;;18.20;98.50;;;;;;5054021;28;20186;-70
2022/11/02 00:05:13;;;;;;;2.90;2.70;;;18.20;98.40;;;;;;5054223;28;20203;-70
2022/11/02 00:07:41;;;;;;;3.20;2.70;;;18.20;98.20;;;;;;5037410;28;20235;-70
2022/11/02 00:10:09;;;;;;;3.28;2.97;;;18.20;98.30;;;;;;5053887;28;20232;-70
2022/11/02 00:12:35;;;;;;;3.08;2.67;;;18.20;98.30;;;;;;5070478;28;20281;-69
2022/11/02 00:15:00;;;;;;;3.10;2.90;;;18.20;98.40;;;;;;5053647;28;20293;-70
2022/11/02 00:17:28;;;;;;;2.90;2.63;;;18.20;98.20;;;;;;5055025;28;20198;-69
2022/11/02 00:19:53;;;;;;;2.47;2.28;;;18.20;98.30;;;;;;5054740;28;20210;-70
2022/11/02 00:22:19;;;;;;;2.92;2.70;;;18.20;98.30;;;;;;5070337;28;20188;-70
2022/11/02 00:24:45;;;;;;;2.83;2.53;;;18.20;98.20;;;;;;5070131;28;20183;-69
2022/11/02 00:27:11;;;;;;;3.15;2.85;;;18.20;98.10;;;;;;5036820;28;20250;-69
2022/11/02 00:29:37;;;;;;;2.88;2.67;;;18.20;98.20;;;;;;5036742;28;20191;-70
2022/11/02 00:32:05;;;;;;;3.47;2.70;;;18.20;98.00;;;;;;5070134;28;20273;-70
2022/11/02 00:34:30;;;;;;;3.22;2.88;;;18.20;98.00;;;;;;5069763;28;20281;-70
2022/11/02 00:36:56;;;;;;;3.33;2.78;;;18.20;97.70;;;;;;5069705;28;20218;-70
2022/11/02 00:39:22;;;;;;;2.97;2.70;;;18.20;97.90;;;;;;5070102;28;20697;-70
2022/11/02 00:41:48;;;;;;;3.25;2.88;;;18.20;97.60;;;;;;5054466;28;20179;-70
2022/11/02 00:44:13;;;;;;;3.33;2.80;;;18.20;97.60;;;;;;5070178;28;20265;-69
2022/11/02 00:46:39;;;;;;;4.03;2.65;;;18.20;97.70;;;;;;5069639;28;20256;-70
2022/11/02 00:49:05;;;;;;;2.70;2.50;;;18.20;97.70;;;;;;5052848;28;20183;-70
2022/11/02 00:51:33;;;;;;;3.22;2.58;;;18.20;97.90;;;;;;5053502;28;20186;-70
2022/11/02 00:54:00;;;;;;;3.53;2.55;;;18.20;97.40;;;;;;5036616;28;20217;-70
2022/11/02 00:56:26;;;;;;;2.70;2.47;;;18.20;97.70;;;;;;5053005;28;20214;-70
2022/11/02 00:58:52;;;;;;;3.13;2.60;;;18.20;97.60;;;;;;5036215;28;20219;-70
2022/11/02 01:01:17;;;;;;;2.70;2.50;;;18.20;97.60;;;;;;5052922;28;20717;-70
2022/11/02 01:03:43;;;;;;;2.72;2.53;;;18.20;97.70;;;;;;5052943;28;20190;-69
2022/11/02 01:06:14;;;;;;;2.47;2.28;;;18.20;97.70;;;;;;5069615;28;20229;-70
2022/11/02 01:08:40;;;;;;;2.85;2.53;;;18.10;97.60;;;;;;5052412;28;20187;-70
2022/11/02 01:11:17;;;;;;;2.70;2.50;;;18.20;97.70;;;;;;5036471;28;20206;-69
2022/11/02 01:13:44;;;;;;;2.55;2.35;;;18.20;97.50;;;;;;5069763;28;20182;-69
2022/11/02 01:16:11;;;;;;;2.67;2.47;;;18.20;97.70;;;;;;5052465;28;20203;-70
2022/11/02 01:18:39;;;;;;;2.95;2.50;;;18.20;97.80;;;;;;5052316;28;20214;-70
2022/11/02 01:21:06;;;;;;;2.63;2.42;;;18.20;97.50;;;;;;5052519;28;20182;-69
2022/11/02 01:23:34;;;;;;;2.50;2.30;;;18.10;97.40;;;;;;5085970;28;20186;-70
2022/11/02 01:26:06;;;;;;;2.50;2.28;;;18.10;97.30;;;;;;5035643;28;20729;-70
2022/11/02 01:28:32;;;;;;;2.50;2.30;;;18.10;97.20;;;;;;5035791;28;20212;-69
2022/11/02 01:30:59;;;;;;;2.30;2.10;;;18.10;97.40;;;;;;5035799;28;20185;-69
2022/11/02 01:33:25;;;;;;;2.22;2.03;;;18.10;97.30;;;;;;5035692;28;20191;-69
2022/11/02 01:36:05;;;;;;;2.50;2.30;;;18.10;97.00;;;;;;5053024;28;20209;-68
2022/11/02 01:38:32;;;;;;;2.55;2.35;;;18.10;97.00;;;;;;5085713;28;20213;-69
2022/11/02 01:40:59;;;;;;;2.30;2.10;;;18.10;97.00;;;;;;5052237;28;20218;-69
2022/11/02 01:43:36;;;;;;;2.75;2.47;;;18.10;97.40;;;;;;5035818;28;20194;-70
2022/11/02 01:46:20;;;;;;;2.45;2.25;;;18.10;96.90;;;;;;5051878;28;20209;-70
2022/11/02 01:49:07;;;;;;;2.55;2.35;;;18.10;96.80;;;;;;5035531;28;20228;-69
2022/11/02 01:51:40;;;;;;;2.25;2.05;;;18.10;97.00;;;;;;5052283;28;20182;-69
2022/11/02 01:54:17;;;;;;;2.13;1.90;;;18.10;96.80;;;;;;5068482;28;20179;-69
2022/11/02 01:56:49;;;;;;;3.95;2.40;;;18.10;96.90;;;;;;5051727;28;20682;-70
2022/11/02 01:59:28;;;;;;;2.50;2.30;;;18.10;96.60;;;;;;5051931;28;20230;-69
2022/11/02 02:01:53;;;;;;;2.17;2.00;;;18.10;96.60;;;;;;5068351;28;20170;-70
2022/11/02 02:04:22;;;;;;;2.30;2.10;;;18.10;96.60;;;;;;5035304;28;20224;-69
2022/11/02 02:06:49;;;;;;;2.33;2.13;;;18.10;96.70;;;;;;5051499;28;20757;-70
2022/11/02 02:09:20;;;;;;;2.38;2.08;;;18.10;96.60;;;;;;5051369;28;20328;-70
2022/11/02 02:11:46;;;;;;;1.98;1.88;;;18.10;96.80;;;;;;5051846;28;20186;-70
2022/11/02 02:14:18;;;;;;;2.70;2.20;;;18.10;96.60;;;;;;5051548;28;20198;-69
2022/11/02 02:17:17;;;;;;;2.20;2.00;;;18.10;96.60;;;;;;5053654;28;20293;-70
2022/11/02 02:20:26;;;;;;;2.05;1.95;;;18.10;96.70;;;;;;5051029;28;20214;-70
2022/11/02 02:23:10;;;;;;;2.25;2.05;;;18.10;96.50;;;;;;5051255;28;20303;-70
2022/11/02 02:25:50;;;;;;;2.42;2.22;;;18.10;96.50;;;;;;5052473;28;20210;-70
2022/11/02 02:28:29;;;;;;;3.67;2.30;;;18.10;96.50;;;;;;5051323;28;20345;-69
2022/11/02 02:31:09;;;;;;;2.05;1.95;;;18.10;96.60;;;;;;5068020;28;20220;-69
2022/11/02 02:34:03;;;;;;;2.28;2.08;;;18.10;96.70;;;;;;5051169;28;20642;-69
2022/11/02 02:36:36;;;;;;;2.25;2.05;;;18.10;96.50;;;;;;5084100;28;20225;-70
2022/11/02 02:39:45;;;;;;;1.80;1.70;;;18.10;96.20;;;;;;5067913;28;20214;-70
2022/11/02 02:42:31;;;;;;;1.83;1.73;;;18.10;96.50;;;;;;5084974;28;20270;-70
2022/11/02 02:45:29;;;;;;;2.35;1.95;;;18.00;96.60;;;;;;5034465;28;20198;-69
2022/11/02 02:48:11;;;;;;;2.10;1.90;;;18.00;96.40;;;;;;5067569;28;20300;-69
2022/11/02 02:50:52;;;;;;;2.13;1.92;;;18.10;96.20;;;;;;5034683;28;20182;-70
2022/11/02 02:53:27;;;;;;;1.98;1.83;;;18.00;95.90;;;;;;5050907;28;20661;-70
2022/11/02 02:55:57;;;;;;;2.08;1.98;;;18.00;96.30;;;;;;5034473;28;20201;-70
2022/11/02 02:58:35;;;;;;;1.85;1.75;;;18.00;96.20;;;;;;5050974;28;20295;-69
2022/11/02 03:01:04;;;;;;;1.88;1.73;;;18.10;96.30;;;;;;5051033;28;20223;-69
2022/11/02 03:03:33;;;;;;;1.92;1.83;;;18.10;96.30;;;;;;5034632;28;20269;-69
2022/11/02 03:06:07;;;;;;;2.05;1.85;;;18.00;96.30;;;;;;5050699;28;20202;-69
2022/11/02 03:08:40;;;;;;;2.35;2.15;;;18.00;96.30;;;;;;5067675;28;20186;-70
2022/11/02 03:11:18;;;;;;;2.55;2.35;;;18.00;96.20;;;;;;5051440;28;20179;-69
2022/11/02 03:14:15;;;;;;;2.10;1.90;;;18.00;95.70;;;;;;5051178;28;20219;-70
2022/11/02 03:17:13;;;;;;;2.05;1.95;;;18.00;96.10;;;;;;5034535;28;20245;-70
2022/11/02 03:20:17;;;;;;;2.17;1.88;;;18.00;95.80;;;;;;5034209;28;20635;-70
2022/11/02 03:23:17;;;;;;;2.03;1.83;;;18.00;96.10;;;;;;5056904;28;20196;-70
2022/11/02 03:25:59;;;;;;;2.15;2.00;;;18.00;96.10;;;;;;5050673;28;20285;-70
2022/11/02 03:29:14;;;;;;;1.80;1.70;;;18.00;96.00;;;;;;5034133;28;20662;-69
2022/11/02 03:31:57;;;;;;;2.00;1.83;;;18.00;96.00;;;;;;5052241;28;20198;-69
2022/11/02 03:34:47;;;;;;;1.75;1.63;;;18.00;96.20;;;;;;5055717;28;20174;-69
2022/11/02 03:37:51;;;;;;;2.10;1.90;;;18.00;95.90;;;;;;5070941;28;20190;-70
2022/11/02 03:40:26;;;;;;;1.98;1.88;;;18.00;95.90;;;;;;5054246;28;20246;-69
2022/11/02 03:42:56;;;;;;;2.00;1.65;;;18.00;96.00;;;;;;5088088;28;20174;-69
2022/11/02 03:45:26;;;;;;;2.42;1.80;;;18.00;96.20;;;;;;5087866;28;20234;-70
2022/11/02 03:48:03;;;;;;;1.77;1.60;;;18.00;96.00;;;;;;5055398;28;20255;-70
2022/11/02 03:50:32;;;;;;;1.90;1.80;;;18.00;96.10;;;;;;5050111;28;20193;-70
2022/11/02 03:53:13;;;;;;;2.55;1.60;;;18.00;96.00;;;;;;5054063;28;20187;-70
2022/11/02 03:55:46;;;;;;;2.17;1.77;;;18.00;95.90;;;;;;5037844;28;20203;-70
2022/11/02 03:58:13;;;;;;;2.78;1.90;;;18.00;95.50;;;;;;5035739;28;20197;-69
2022/11/02 04:00:56;;;;;;;1.92;1.83;;;18.00;95.80;;;;;;5037829;28;20183;-70
2022/11/02 04:03:23;;;;;;;2.42;1.77;;;18.00;95.10;;;;;;5054238;28;20179;-70
2022/11/02 04:05:49;;;;;;;1.70;1.60;;;18.00;95.70;;;;;;5070504;28;20206;-69
2022/11/02 04:08:33;;;;;;;1.98;1.85;;;18.00;95.80;;;;;;5054023;28;20548;-70
2022/11/02 04:16:38;;;;;;;2.15;1.73;;;18.00;96.00;;;;;;5071956;28;20297;-70
2022/11/02 04:19:27;;;;;;;1.83;1.70;;;18.00;95.70;;;;;;5037340;28;20293;-70
2022/11/02 04:27:32;;;;;;;2.10;2.00;;;18.00;95.80;;;;;;5070255;28;20179;-69
2022/11/02 04:29:58;;;;;;;1.73;1.63;;;18.00;95.80;;;;;;5086896;28;20277;-70
2022/11/02 04:35:14;;;;;;;1.67;1.58;;;18.00;95.90;;;;;;5070076;28;20297;-69
2022/11/02 04:40:30;;;;;;;2.08;1.88;;;18.00;95.60;;;;;;5070446;28;20179;-70
2022/11/02 04:42:57;;;;;;;1.75;1.55;;;18.00;95.40;;;;;;5052787;28;20191;-70
2022/11/02 04:45:23;;;;;;;2.78;1.80;;;18.00;95.50;;;;;;5036684;28;20264;-69
2022/11/02 04:47:49;;;;;;;1.45;1.35;;;18.00;95.40;;;;;;5052927;28;20583;-70
2022/11/02 04:50:15;;;;;;;2.03;1.83;;;18.00;95.60;;;;;;5069818;28;20182;-70
2022/11/02 04:52:42;;;;;;;2.38;1.90;;;18.00;95.30;;;;;;5052681;28;20186;-70
2022/11/02 04:55:08;;;;;;;1.65;1.55;;;18.00;95.50;;;;;;5053235;28;20281;-69
2022/11/02 04:57:35;;;;;;;1.75;1.65;;;17.90;95.60;;;;;;5053257;28;20182;-69
2022/11/02 05:00:02;;;;;;;2.10;1.88;;;18.00;95.70;;;;;;5052718;28;20203;-69
2022/11/02 05:02:29;;;;;;;1.90;1.80;;;18.00;95.80;;;;;;5036553;28;20179;-69
2022/11/02 05:04:56;;;;;;;1.92;1.63;;;18.00;95.60;;;;;;5052755;28;20227;-70
2022/11/02 05:07:22;;;;;;;2.13;1.90;;;17.90;95.60;;;;;;5069422;28;20182;-70
2022/11/02 05:09:49;;;;;;;1.40;1.30;;;17.90;95.70;;;;;;5033886;28;20236;-70
2022/11/02 05:12:14;;;;;;;2.28;1.60;;;17.90;95.70;;;;;;5035610;28;20604;-70
2022/11/02 05:14:40;;;;;;;1.90;1.80;;;17.90;95.70;;;;;;5049851;28;20194;-69
2022/11/02 05:17:06;;;;;;;1.60;1.50;;;17.90;95.40;;;;;;5036317;28;20223;-69
2022/11/02 05:19:34;;;;;;;1.73;1.63;;;17.90;95.30;;;;;;5086246;28;20210;-69
2022/11/02 05:22:01;;;;;;;1.60;1.40;;;18.00;95.20;;;;;;5086047;28;20183;-69
2022/11/02 05:24:28;;;;;;;2.00;1.67;;;17.90;95.20;;;;;;5036101;28;20239;-70
2022/11/02 05:26:54;;;;;;;1.50;1.40;;;17.90;95.20;;;;;;5069056;28;20660;-69
2022/11/02 05:29:23;;;;;;;1.75;1.58;;;17.90;95.30;;;;;;5068751;28;20175;-69
2022/11/02 05:31:51;;;;;;;1.50;1.40;;;17.90;95.20;;;;;;5052759;28;20193;-70
2022/11/02 05:34:16;;;;;;;2.90;1.67;;;17.90;95.20;;;;;;5035974;28;20170;-70
2022/11/02 05:36:42;;;;;;;2.28;1.80;;;17.90;95.10;;;;;;5085574;28;20236;-69
2022/11/02 05:39:08;;;;;;;1.77;1.67;;;17.90;94.90;;;;;;5035563;28;20225;-69
2022/11/02 05:41:34;;;;;;;1.73;1.50;;;18.00;94.90;;;;;;5052963;28;20183;-69
2022/11/02 05:44:00;;;;;;;1.50;1.40;;;17.90;95.30;;;;;;5052021;28;20265;-69
2022/11/02 05:46:27;;;;;;;1.73;1.50;;;17.90;95.30;;;;;;5052172;28;20384;-70
2022/11/02 05:48:53;;;;;;;1.40;1.30;;;17.90;95.30;;;;;;5051986;28;20178;-70
2022/11/02 05:51:19;;;;;;;2.17;1.60;;;18.00;95.20;;;;;;5053183;28;20189;-70
2022/11/02 05:53:44;;;;;;;1.67;1.55;;;17.90;95.20;;;;;;5068978;28;20178;-70
2022/11/02 05:56:11;;;;;;;1.45;1.35;;;17.90;95.30;;;;;;5084100;28;20210;-70
2022/11/02 05:58:36;;;;;;;1.77;1.30;;;17.90;95.20;;;;;;5035077;28;20222;-70
2022/11/02 06:01:05;;;;;;;1.55;1.45;;;17.90;95.30;;;;;;5052107;28;20186;-70
2022/11/02 06:03:32;;;;;;;1.50;1.40;;;17.90;95.40;;;;;;5052091;28;20183;-70
2022/11/02 06:06:00;;;;;;;1.70;1.58;;;17.90;95.30;;;;;;5068176;28;20682;-70
2022/11/02 06:08:26;;;;;;;1.55;1.45;;;18.00;95.20;;;;;;5085034;28;20262;-69
2022/11/02 06:10:53;;;;;;;1.85;1.48;;;17.90;95.20;;;;;;5068157;28;20191;-69
2022/11/02 06:13:19;;;;;;;1.75;1.65;;;17.90;95.00;;;;;;5068355;28;20232;-70
2022/11/02 06:15:45;;;;;;;1.95;1.70;;;17.90;94.90;;;;;;5034809;28;20198;-70
2022/11/02 06:18:11;;;;;;;1.65;1.45;;;17.90;95.20;;;;;;5085023;28;20190;-69
2022/11/02 06:20:37;;;;;;;1.45;1.35;;;17.90;95.00;;;;;;5052810;28;20257;-70
2022/11/02 06:23:02;;;;;;;1.58;1.48;;;18.00;94.90;;;;;;5051466;28;20291;-70
2022/11/02 06:25:28;;;;;;;2.08;1.58;;;17.90;94.90;;;;;;5051413;28;20216;-70
2022/11/02 06:27:56;;;;;;;1.67;1.58;;;17.90;94.70;;;;;;5068206;28;20185;-70
2022/11/02 06:30:25;;;;;;;1.73;1.60;;;17.90;94.80;;;;;;5051550;28;20171;-70
2022/11/02 06:32:52;;;;;;;1.77;1.40;;;17.90;94.80;;;;;;5051664;28;20225;-71
2022/11/02 06:35:21;;;;;;;1.65;1.55;;;17.90;94.90;;;;;;5034890;28;20206;-69
2022/11/02 06:37:47;;;;;;;2.78;1.60;;;17.90;94.70;;;;;;5050993;28;20194;-69
2022/11/02 06:40:14;;;;;;;1.73;1.63;;;17.90;94.90;;;;;;5050729;28;20252;-70
2022/11/02 06:42:40;;;;;;;1.70;1.60;;;17.90;94.80;;;;;;5067461;28;20190;-69
2022/11/02 06:45:07;;;;;;;2.13;1.85;;;17.90;95.00;;;;;;5034569;28;20198;-68
2022/11/02 06:47:36;;;;;;;2.08;1.88;;;17.90;95.20;;;;;;5084654;28;20171;-69
2022/11/02 06:50:03;;;;;;;1.95;1.85;;;17.90;95.20;;;;;;5050836;28;20186;-69
2022/11/02 06:52:30;;;;;;;1.60;1.50;;;17.90;94.90;;;;;;5068050;28;20280;-69
2022/11/02 06:54:55;;;;;;;1.75;1.65;;;17.90;95.30;;;;;;5034488;28;20222;-68
2022/11/02 06:57:21;;;;;;;2.13;1.95;;;17.90;95.10;;;;;;5051771;28;20221;-69
2022/11/02 06:59:47;;;;;;;2.15;1.95;;;17.90;95.20;;;;;;5034015;28;20685;-68
2022/11/02 07:02:13;;;;;;;2.33;2.03;;;17.90;95.00;;;;;;5034578;28;20175;-68
2022/11/02 07:04:39;;;;;;;2.10;1.90;;;17.90;94.90;;;;;;5087504;28;20221;-69
2022/11/02 07:07:05;;;;;;;3.03;2.15;;;17.90;94.70;;;;;;5069400;28;20206;-69
2022/11/02 07:09:31;;;;;;;3.17;1.85;;;17.90;94.70;;;;;;5062816;28;20262;-69
2022/11/02 07:11:57;;;;;;;2.60;2.00;;;17.90;94.70;;;;;;5042515;28;20186;-68
2022/11/02 07:14:22;;;;;;;2.53;1.95;;;17.90;94.70;;;;;;5071437;28;20182;-69
2022/11/02 07:16:48;;;;;;;2.20;2.00;;;17.90;94.80;;;;;;5056084;28;20210;-69
2022/11/02 07:19:14;;;;;;;1.90;1.70;;;17.90;94.70;;;;;;5054779;28;20210;-68
2022/11/02 07:21:40;;;;;;;2.10;1.80;;;17.90;94.60;;;;;;5058393;28;20174;-68
2022/11/02 07:24:05;;;;;;;1.80;1.70;;;17.90;94.60;;;;;;5091743;28;20230;-69
2022/11/02 07:26:31;;;;;;;3.13;1.83;;;17.90;94.60;;;;;;5065105;28;20237;-68
2022/11/02 07:28:57;;;;;;;2.03;1.90;;;18.00;94.70;;;;;;5054642;28;20185;-68
2022/11/02 07:31:23;;;;;;;2.30;1.85;;;18.00;94.80;;;;;;5052879;28;20670;-69
2022/11/02 07:33:49;;;;;;;2.33;1.50;;;18.00;94.70;;;;;;5055803;28;20228;-69
2022/11/02 07:36:15;;;;;;;2.55;1.95;;;17.90;94.70;;;;;;5054473;28;20206;-69
2022/11/02 07:38:41;;;;;;;1.98;1.63;;;17.90;94.70;;;;;;5055448;28;20240;-68
2022/11/02 07:41:07;;;;;;;1.48;1.38;;;18.00;94.80;;;;;;5039491;28;20665;-69
2022/11/02 07:43:32;;;;;;;1.83;1.73;;;18.00;94.70;;;;;;5074841;28;20174;-69
2022/11/02 07:46:05;;;;;;;2.15;1.85;;;18.00;94.60;;;;;;5067662;28;20229;-69
2022/11/02 07:48:31;;;;;;;2.17;1.90;;;18.00;94.60;;;;;;5100728;28;20236;-68
2022/11/02 07:51:00;;;;;;;1.60;1.48;;;18.00;94.60;;;;;;5074208;28;20177;-68
2022/11/02 07:53:26;;;;;;;2.15;1.90;;;18.00;94.70;;;;;;5091434;28;20198;-69
2022/11/02 07:55:52;;;;;;;1.95;1.67;;;18.00;95.00;;;;;;5065617;28;20194;-68
2022/11/02 07:58:17;;;;;;;2.55;1.88;;;18.00;94.60;;;;;;5059250;28;20189;-68
2022/11/02 08:00:43;;;;;;;1.90;1.48;;;18.00;94.70;;;;;;5054167;28;20531;-69
2022/11/02 08:03:10;;;;;;;2.08;1.77;;;18.00;94.70;;;;;;5040187;28;20221;-69
2022/11/02 08:05:39;;;;;;;1.63;1.50;;;18.00;94.70;;;;;;5068746;28;20210;-69
2022/11/02 08:08:10;;;;;;;1.63;1.42;;;18.00;94.80;;;;;;5073862;28;20185;-68
2022/11/02 08:10:36;;;;;;;1.77;1.67;;;18.00;94.90;;;;;;5092100;28;20278;-69
2022/11/02 08:13:02;;;;;;;3.20;1.80;;;18.00;94.90;;;;;;5038427;28;20190;-69
2022/11/02 08:15:28;;;;;;;1.90;1.50;;;18.00;94.90;;;;;;5053768;28;20205;-69
2022/11/02 08:18:15;;;;;;;1.50;1.40;;;18.00;94.90;;;;;;5045233;28;20228;-68
2022/11/02 08:20:41;;;;;;;1.85;1.65;;;18.00;94.90;;;;;;5066431;28;20186;-69
2022/11/02 08:23:09;;;;;;;2.00;1.80;;;18.00;94.90;;;;;;5055925;28;20202;-69
2022/11/02 08:25:36;;;;;;;2.55;1.58;;;18.00;95.10;;;;;;5053507;28;20236;-69
2022/11/02 08:28:03;;;;;;;2.50;1.80;;;18.00;95.10;;;;;;5084213;28;20185;-69
2022/11/02 08:30:30;;;;;;;1.77;1.60;;;18.00;95.10;;;;;;5057173;28;20289;-70
2022/11/02 08:33:26;;;;;;;2.95;1.50;;;18.00;95.20;;;;;;5074795;28;20192;-70
2022/11/02 08:35:52;;;;;;;1.85;1.60;;;18.00;95.20;;;;;;5051419;28;20800;-70
2022/11/02 08:38:21;;;;;;;3.42;1.80;;;18.00;95.30;;;;;;5055985;28;20213;-69
2022/11/02 08:40:47;;;;;;;1.48;1.38;;;18.00;95.30;;;;;;5088874;28;20277;-69
2022/11/02 08:43:14;;;;;;;2.45;1.55;;;18.00;95.20;;;;;;5036942;28;20248;-69
2022/11/02 08:45:43;;;;;;;1.55;1.30;;;18.00;95.10;;;;;;5053309;28;20206;-70
2022/11/02 08:48:09;;;;;;;2.45;1.50;;;18.00;95.00;;;;;;5057099;28;20178;-69
2022/11/02 08:50:35;;;;;;;2.88;1.73;;;18.00;95.10;;;;;;5074428;28;20178;-69
2022/11/02 08:53:01;;;;;;;2.67;1.45;;;18.00;95.00;;;;;;5073444;28;20194;-70
2022/11/02 08:55:26;;;;;;;2.75;1.67;;;18.00;95.10;;;;;;5058141;28;20236;-70
2022/11/02 08:57:55;;;;;;;2.00;1.52;;;18.10;95.00;;;;;;5061029;28;20188;-69
2022/11/02 09:00:29;;;;;;;2.15;1.30;;;18.10;95.00;;;;;;5061567;28;20238;-70
2022/11/02 09:02:57;;;;;;;2.42;1.73;;;18.10;95.00;;;;;;5043777;28;20182;-69
2022/11/02 09:05:23;;;;;;;2.42;1.42;;;18.10;95.10;;;;;;5081079;28;20209;-69
2022/11/02 09:07:56;;;;;;;2.90;1.30;;;18.10;95.20;;;;;;5079295;28;20173;-70
2022/11/02 09:10:22;;;;;;;2.28;1.40;;;18.10;95.20;;;;;;5044973;28;20231;-70
2022/11/02 09:12:47;;;;;;;2.10;1.30;;;18.10;95.20;;;;;;5068888;28;20178;-69
2022/11/02 09:15:13;;;;;;;1.60;1.50;;;18.00;95.20;;;;;;5053899;28;20202;-69
2022/11/02 09:17:39;;;;;;;1.95;1.30;;;18.10;95.30;;;;;;5051146;28;20194;-70
2022/11/02 09:20:05;;;;;;;1.70;1.30;;;18.10;95.40;;;;;;5035666;28;20214;-70
2022/11/02 09:22:31;;;;;;;2.65;1.30;;;18.10;95.40;;;;;;5036195;28;20269;-70
2022/11/02 09:24:57;;;;;;;1.40;1.23;;;18.10;95.50;;;;;;5053706;28;20550;-70
2022/11/02 09:27:22;;;;;;;3.00;1.40;;;18.00;95.40;;;;;;5052138;28;20174;-69
2022/11/02 09:29:48;;;;;;;1.40;1.30;;;18.10;95.50;;;;;;5055935;28;20181;-70
2022/11/02 09:32:14;;;;;;;1.63;1.35;;;18.10;95.50;;;;;;5072562;28;20194;-70
2022/11/02 09:34:39;;;;;;;1.20;1.10;;;18.10;95.60;;;;;;5089223;28;20197;-69
2022/11/02 09:37:05;;;;;;;1.75;1.27;;;18.10;95.50;;;;;;5072244;28;20181;-70
2022/11/02 09:39:31;;;;;;;1.75;1.50;;;18.10;95.50;;;;;;5088720;28;20221;-70
2022/11/02 09:42:17;;;;;;;2.20;1.42;;;18.10;95.50;;;;;;5065095;28;20273;-69
2022/11/02 09:45:02;;;;;;;1.75;1.27;;;18.10;95.50;;;;;;5052082;28;20175;-69
2022/11/02 09:47:35;;;;;;;1.50;1.40;;;18.10;95.70;;;;;;5069859;28;20188;-70
2022/11/02 09:50:02;;;;;;;1.58;1.38;;;18.10;95.50;;;;;;5046334;28;20184;-70
2022/11/02 09:52:37;;;;;;;1.65;1.40;;;18.10;95.50;;;;;;5073144;28;20177;-69
2022/11/02 09:55:14;;;;;;;1.50;1.38;;;18.10;95.60;;;;;;5055110;28;20212;-70
2022/11/02 09:57:46;;;;;;;1.30;1.17;;;18.10;95.50;;;;;;5074268;28;20189;-70
2022/11/02 10:00:14;;;;;;;2.15;1.40;;;18.10;95.70;;;;;;5068216;28;20804;-70
2022/11/02 10:03:00;;;;;;;2.13;1.48;;;18.10;95.50;;;;;;5053118;28;20217;-70
2022/11/02 10:05:57;;;;;;;1.50;1.25;;;18.10;95.50;;;;;;5068310;28;20199;-69
2022/11/02 10:09:08;;;;;;;1.55;1.45;;;18.10;95.40;;;;;;5084887;28;20582;-70
2022/11/02 10:12:05;;;;;;;2.85;1.38;;;18.10;95.20;;;;;;5063392;28;20672;-69
2022/11/02 10:14:38;;;;;;;2.42;1.30;;;18.20;95.30;;;;;;5040910;28;20271;-70
2022/11/02 10:17:16;;;;;;;1.55;1.45;;;18.20;95.30;;;;;;5071588;28;20198;-70
2022/11/02 10:19:52;;;;;;;2.50;1.17;;;18.20;95.30;;;;;;5090760;28;20297;-70
2022/11/02 10:22:21;;;;;;;3.08;1.40;;;18.20;95.40;;;;;;5051756;28;20179;-69
2022/11/02 10:24:50;;;;;;;1.25;0.98;;;18.20;95.20;;;;;;5084236;28;20206;-69
2022/11/02 10:27:27;;;;;;;2.22;1.05;;;18.20;95.10;;;;;;5047379;28;20241;-70
2022/11/02 10:30:15;;;;;;;3.67;1.17;;;18.20;95.20;;;;;;5084553;28;20178;-69
2022/11/02 10:32:43;;;;;;;2.97;1.40;;;18.20;95.10;;;;;;5052467;28;20179;-70
2022/11/02 10:35:26;;;;;;;1.77;1.30;;;18.20;95.40;;;;;;5034607;28;20202;-69
2022/11/02 10:38:04;;;;;;;1.60;1.10;;;18.20;95.30;;;;;;5051299;28;20240;-70
2022/11/02 10:41:01;;;;;;;1.80;1.30;;;18.20;95.00;;;;;;5048002;28;20218;-70
2022/11/02 10:43:45;;;;;;;1.98;1.25;;;18.20;95.00;;;;;;5050588;28;20234;-69
2022/11/02 10:46:24;;;;;;;2.55;1.23;;;18.20;95.00;;;;;;5051107;28;20205;-70
2022/11/02 10:49:18;;;;;;;2.85;1.58;;;18.20;95.00;;;;;;5051089;28;20669;-70
2022/11/02 10:51:44;;;;;;;1.80;1.40;;;18.20;95.30;;;;;;5051075;28;20189;-70
2022/11/02 10:54:15;;;;;;;2.55;1.20;;;18.20;95.30;;;;;;5034491;28;20186;-69
2022/11/02 10:56:42;;;;;;;2.92;1.35;;;18.20;95.00;;;;;;5084167;28;20213;-69
2022/11/02 10:59:19;;;;;;;2.67;1.15;;;18.20;95.10;;;;;;5034185;28;20245;-69
2022/11/02 11:02:05;;;;;;;1.42;1.20;;;18.20;95.10;;;;;;5050974;28;20285;-69
2022/11/02 11:04:33;;;;;;;2.28;1.17;;;18.20;95.00;;;;;;5051138;28;20171;-69
2022/11/02 11:07:18;;;;;;;2.45;1.20;;;18.20;94.70;;;;;;5051085;28;20293;-70
2022/11/02 11:09:48;;;;;;;2.22;1.30;;;18.20;94.70;;;;;;5067716;28;20182;-70
2022/11/02 11:12:31;;;;;;;2.65;1.50;;;18.20;94.90;;;;;;5084282;28;20236;-70
2022/11/02 11:15:01;;;;;;;2.25;1.23;;;18.20;95.00;;;;;;5034545;28;20186;-70
2022/11/02 11:17:34;;;;;;;2.60;1.40;;;18.20;95.10;;;;;;5050769;28;20214;-70
2022/11/02 11:20:03;;;;;;;3.50;1.38;;;18.20;95.00;;;;;;5051958;28;20253;-70
2022/11/02 11:22:31;;;;;;;2.78;1.10;;;18.30;94.80;;;;;;5050941;28;20204;-70
2022/11/02 11:25:12;;;;;;;3.65;1.48;;;18.30;95.00;;;;;;5033953;28;20190;-70
2022/11/02 11:27:53;;;;;;;1.48;1.13;;;18.20;94.70;;;;;;5050934;28;20221;-70
2022/11/02 11:30:32;;;;;;;3.42;1.48;;;18.30;94.80;;;;;;5050604;28;20179;-70
2022/11/02 11:33:01;;;;;;;2.08;1.25;;;18.20;94.70;;;;;;5051108;28;20254;-70
2022/11/02 11:35:31;;;;;;;3.22;1.40;;;18.20;94.80;;;;;;5050592;28;20678;-69
2022/11/02 11:38:02;;;;;;;1.52;1.20;;;18.20;94.70;;;;;;5084246;28;20252;-69
2022/11/02 11:40:34;;;;;;;2.75;1.42;;;18.20;94.80;;;;;;5051517;28;20261;-69
2022/11/02 11:43:02;;;;;;;2.95;1.48;;;18.20;94.80;;;;;;5083687;28;20282;-69
2022/11/02 11:45:31;;;;;;;2.05;1.30;;;18.20;95.00;;;;;;5033959;28;20207;-69
2022/11/02 11:48:32;;;;;;;2.00;1.15;;;18.20;95.00;;;;;;5084148;28;20213;-70
2022/11/02 11:51:02;;;;;;;3.92;1.23;;;18.20;94.60;;;;;;5068685;28;20187;-70
2022/11/02 11:53:28;;;;;;;2.08;1.08;;;18.20;94.90;;;;;;5086613;28;20182;-69
2022/11/02 11:55:58;;;;;;;3.58;1.10;;;18.20;94.80;;;;;;5037742;28;20198;-70
2022/11/02 11:58:29;;;;;;;2.75;1.00;;;18.20;94.70;;;;;;5037173;28;20186;-68
2022/11/02 12:01:19;;;;;;;3.78;1.52;;;18.30;94.70;;;;;;5087733;28;20183;-69
2022/11/02 12:04:00;;;;;;;2.92;1.17;;;18.30;94.70;;;;;;5054377;28;20201;-69
2022/11/02 12:07:01;;;;;;;4.13;1.30;;;18.20;94.50;;;;;;5054132;28;20198;-70
2022/11/02 12:10:14;;;;;;;2.40;1.17;;;18.20;94.60;;;;;;5070610;28;20193;-69
2022/11/02 12:12:52;;;;;;;2.13;1.05;;;18.20;94.70;;;;;;5033287;28;20292;-70
2022/11/02 12:16:04;;;;;;;3.63;1.30;;;18.30;94.60;;;;;;5069327;28;20244;-69
2022/11/02 12:18:40;;;;;;;2.88;1.33;;;18.20;94.90;;;;;;5049140;28;20219;-69
2022/11/02 12:21:34;;;;;;;2.03;1.17;;;18.20;95.50;;;;;;5049665;28;20226;-69
2022/11/02 12:24:39;;;;;;;2.22;1.08;;;18.20;95.30;;;;;;5029642;28;20241;-69
2022/11/02 12:27:20;;;;;;;3.05;1.27;;;18.20;95.10;;;;;;5033767;28;20250;-69
2022/11/02 12:30:18;;;;;;;3.22;1.30;;;18.20;95.10;;;;;;5033875;28;20183;-69
2022/11/02 12:33:16;;;;;;;2.15;1.35;;;18.20;94.90;;;;;;5050063;28;20186;-70
2022/11/02 12:36:12;;;;;;;1.42;1.23;;;18.20;94.60;;;;;;5034688;28;20215;-69
2022/11/02 12:38:53;;;;;;;1.90;1.02;;;18.30;94.80;;;;;;5054795;28;20323;-70
2022/11/02 12:42:07;;;;;;;0.88;0.82;;;18.20;94.80;;;;;;5037155;28;20227;-70
2022/11/02 12:45:00;;;;;;;3.90;1.15;;;18.20;95.20;;;;;;5041711;28;20229;-70
2022/11/02 12:47:55;;;;;;;3.78;1.42;;;18.20;95.00;;;;;;5087004;28;20175;-70
2022/11/02 12:50:48;;;;;;;2.05;1.30;;;18.20;95.00;;;;;;5054600;28;20187;-71
2022/11/02 12:53:42;;;;;;;1.77;1.00;;;18.20;95.00;;;;;;5054442;28;20178;-70
2022/11/02 12:56:19;;;;;;;2.60;1.30;;;18.20;94.90;;;;;;5053272;28;20272;-71
2022/11/02 12:58:46;;;;;;;2.17;1.13;;;18.20;95.40;;;;;;5054247;28;20197;-71
2022/11/02 13:01:34;;;;;;;2.83;1.10;;;18.20;95.40;;;;;;5036609;28;20185;-70
2022/11/02 13:04:22;;;;;;;2.13;1.10;;;18.20;94.90;;;;;;5052653;28;20178;-70
2022/11/02 13:06:54;;;;;;;2.65;0.90;;;18.30;95.10;;;;;;5036320;28;20194;-70
2022/11/02 13:09:40;;;;;;;2.85;1.27;;;18.30;95.10;;;;;;5052504;28;20179;-70
2022/11/02 13:12:18;;;;;;;4.40;1.25;;;18.20;94.90;;;;;;5052856;28;20183;-70
2022/11/02 13:14:51;;;;;;;1.67;1.05;;;18.20;94.90;;;;;;5052676;28;20639;-70
2022/11/02 13:17:43;;;;;;;2.35;1.20;;;18.30;95.00;;;;;;5051648;28;20199;-71
2022/11/02 13:20:15;;;;;;;2.72;1.00;;;18.30;94.90;;;;;;5053257;28;20691;-70
2022/11/02 13:22:47;;;;;;;2.25;1.13;;;18.30;94.90;;;;;;5053480;28;20281;-69
2022/11/02 13:25:24;;;;;;;3.25;1.60;;;18.30;94.80;;;;;;5052785;28;20202;-69
2022/11/02 13:28:04;;;;;;;2.92;1.35;;;18.30;95.30;;;;;;5053675;28;20170;-70
2022/11/02 13:30:32;;;;;;;3.97;1.27;;;18.30;94.90;;;;;;5052484;28;20205;-69
2022/11/02 13:33:11;;;;;;;4.55;1.30;;;18.30;95.10;;;;;;5085441;28;20187;-69
2022/11/02 13:35:39;;;;;;;2.22;1.30;;;18.30;94.60;;;;;;5052469;28;20198;-70